sensor_id;sensor_type;location;lat;lon;timestamp;P1;durP1;ratioP1;P2;durP2;ratioP2
57375;SDS011;44805;45.048;5.062;2022-12-10T01:12:04;30.60;;;13.00;;
57375;SDS011;44805;45.048;5.062;2022-12-10T01:18:14;26.90;;;11.65;;
57375;SDS011;44805;45.048;5.062;2022-12-10T01:20:39;27.48;;;14.45;;
57375;SDS011;44805;45.048;5.062;2022-12-10T01:23:05;30.90;;;13.30;;
57375;SDS011;44805;45.048;5.062;2022-12-10T01:25:30;30.27;;;13.70;;
57375;SDS011;44805;45.048;5.062;2022-12-10T01:27:57;31.48;;;14.40;;
57375;SDS011;44805;45.048;5.062;2022-12-10T01:30:22;31.38;;;14.38;;
57375;SDS011;44805;45.048;5.062;2022-12-10T01:33:06;37.85;;;14.88;;
57375;SDS011;44805;45.048;5.062;2022-12-10T01:35:34;41.78;;;16.10;;
57375;SDS011;44805;45.048;5.062;2022-12-10T01:38:02;33.35;;;13.98;;
57375;SDS011;44805;45.048;5.062;2022-12-10T01:40:27;28.10;;;12.40;;
57375;SDS011;44805;45.048;5.062;2022-12-10T01:42:53;42.95;;;16.73;;
57375;SDS011;44805;45.048;5.062;2022-12-10T01:45:18;30.13;;;12.77;;
57375;SDS011;44805;45.048;5.062;2022-12-10T01:51:06;32.78;;;13.52;;
57375;SDS011;44805;45.048;5.062;2022-12-10T01:53:32;26.15;;;11.85;;
57375;SDS011;44805;45.048;5.062;2022-12-10T01:55:58;44.30;;;16.25;;
57375;SDS011;44805;45.048;5.062;2022-12-10T01:58:24;29.50;;;12.98;;
57375;SDS011;44805;45.048;5.062;2022-12-10T02:11:01;23.48;;;10.40;;
57375;SDS011;44805;45.048;5.062;2022-12-10T02:14:28;22.90;;;10.90;;
57375;SDS011;44805;45.048;5.062;2022-12-10T02:17:34;21.17;;;9.95;;
57375;SDS011;44805;45.048;5.062;2022-12-10T02:20:26;21.70;;;9.65;;
57375;SDS011;44805;45.048;5.062;2022-12-10T02:22:59;20.23;;;9.88;;
57375;SDS011;44805;45.048;5.062;2022-12-10T02:31:19;25.70;;;11.52;;
57375;SDS011;44805;45.048;5.062;2022-12-10T02:33:53;17.92;;;7.68;;
57375;SDS011;44805;45.048;5.062;2022-12-10T02:36:23;17.40;;;8.77;;
57375;SDS011;44805;45.048;5.062;2022-12-10T02:38:52;17.55;;;8.82;;
57375;SDS011;44805;45.048;5.062;2022-12-10T02:41:25;19.23;;;7.72;;
57375;SDS011;44805;45.048;5.062;2022-12-10T02:43:56;19.65;;;8.20;;
57375;SDS011;44805;45.048;5.062;2022-12-10T02:46:24;20.15;;;9.02;;
57375;SDS011;44805;45.048;5.062;2022-12-10T02:48:53;20.75;;;7.57;;
57375;SDS011;44805;45.048;5.062;2022-12-10T02:51:19;16.70;;;7.10;;
57375;SDS011;44805;45.048;5.062;2022-12-10T02:53:45;17.92;;;7.63;;
57375;SDS011;44805;45.048;5.062;2022-12-10T02:59:06;17.52;;;8.07;;
57375;SDS011;44805;45.048;5.062;2022-12-10T03:04:52;17.52;;;6.95;;
57375;SDS011;44805;45.048;5.062;2022-12-10T03:07:46;20.80;;;7.20;;
57375;SDS011;44805;45.048;5.062;2022-12-10T03:13:02;15.38;;;6.93;;
57375;SDS011;44805;45.048;5.062;2022-12-10T03:15:34;17.30;;;6.55;;
57375;SDS011;44805;45.048;5.062;2022-12-10T03:18:03;16.88;;;7.30;;
57375;SDS011;44805;45.048;5.062;2022-12-10T03:20:31;16.10;;;6.97;;
57375;SDS011;44805;45.048;5.062;2022-12-10T03:23:01;12.85;;;5.50;;
57375;SDS011;44805;45.048;5.062;2022-12-10T03:25:29;13.30;;;5.60;;
57375;SDS011;44805;45.048;5.062;2022-12-10T03:27:58;13.15;;;6.70;;
57375;SDS011;44805;45.048;5.062;2022-12-10T03:30:28;12.73;;;6.30;;
57375;SDS011;44805;45.048;5.062;2022-12-10T03:36:22;14.48;;;5.80;;
57375;SDS011;44805;45.048;5.062;2022-12-10T03:38:50;11.85;;;6.05;;
57375;SDS011;44805;45.048;5.062;2022-12-10T03:41:19;14.85;;;6.82;;
57375;SDS011;44805;45.048;5.062;2022-12-10T03:43:58;15.95;;;5.88;;
57375;SDS011;44805;45.048;5.062;2022-12-10T03:46:46;14.65;;;6.10;;
57375;SDS011;44805;45.048;5.062;2022-12-10T03:52:02;9.18;;;4.47;;
57375;SDS011;44805;45.048;5.062;2022-12-10T03:54:30;11.43;;;4.25;;
57375;SDS011;44805;45.048;5.062;2022-12-10T03:57:08;14.18;;;5.55;;
57375;SDS011;44805;45.048;5.062;2022-12-10T03:59:33;13.45;;;5.30;;
57375;SDS011;44805;45.048;5.062;2022-12-10T04:08:32;11.98;;;5.53;;
57375;SDS011;44805;45.048;5.062;2022-12-10T04:11:06;13.05;;;5.72;;
57375;SDS011;44805;45.048;5.062;2022-12-10T04:13:37;9.43;;;4.30;;
57375;SDS011;44805;45.048;5.062;2022-12-10T04:16:22;12.40;;;4.60;;
57375;SDS011;44805;45.048;5.062;2022-12-10T04:22:12;9.88;;;4.55;;
57375;SDS011;44805;45.048;5.062;2022-12-10T04:24:56;11.63;;;5.47;;
57375;SDS011;44805;45.048;5.062;2022-12-10T04:27:51;11.98;;;4.82;;
57375;SDS011;44805;45.048;5.062;2022-12-10T04:30:19;11.48;;;4.85;;
57375;SDS011;44805;45.048;5.062;2022-12-10T04:33:17;9.85;;;4.25;;
57375;SDS011;44805;45.048;5.062;2022-12-10T04:35:46;11.20;;;5.47;;
57375;SDS011;44805;45.048;5.062;2022-12-10T04:38:12;10.88;;;4.78;;
57375;SDS011;44805;45.048;5.062;2022-12-10T04:40:44;11.23;;;4.90;;
57375;SDS011;44805;45.048;5.062;2022-12-10T04:43:13;9.93;;;4.65;;
57375;SDS011;44805;45.048;5.062;2022-12-10T04:45:47;10.98;;;4.90;;
57375;SDS011;44805;45.048;5.062;2022-12-10T04:48:14;10.85;;;5.57;;
57375;SDS011;44805;45.048;5.062;2022-12-10T04:50:40;10.02;;;4.53;;
57375;SDS011;44805;45.048;5.062;2022-12-10T04:53:05;11.20;;;5.18;;
57375;SDS011;44805;45.048;5.062;2022-12-10T04:55:31;9.77;;;4.22;;
57375;SDS011;44805;45.048;5.062;2022-12-10T04:57:56;9.65;;;4.68;;
57375;SDS011;44805;45.048;5.062;2022-12-10T05:00:22;10.75;;;4.57;;
57375;SDS011;44805;45.048;5.062;2022-12-10T05:02:48;16.83;;;7.18;;
57375;SDS011;44805;45.048;5.062;2022-12-10T05:05:14;11.82;;;5.40;;
57375;SDS011;44805;45.048;5.062;2022-12-10T05:07:40;11.25;;;4.68;;
57375;SDS011;44805;45.048;5.062;2022-12-10T05:10:06;9.13;;;4.15;;
57375;SDS011;44805;45.048;5.062;2022-12-10T05:12:32;9.65;;;4.00;;
57375;SDS011;44805;45.048;5.062;2022-12-10T05:14:59;10.10;;;4.65;;
57375;SDS011;44805;45.048;5.062;2022-12-10T05:17:27;8.30;;;4.13;;
57375;SDS011;44805;45.048;5.062;2022-12-10T05:20:03;9.40;;;4.32;;
57375;SDS011;44805;45.048;5.062;2022-12-10T05:22:30;9.75;;;4.70;;
57375;SDS011;44805;45.048;5.062;2022-12-10T05:25:16;9.93;;;4.18;;
57375;SDS011;44805;45.048;5.062;2022-12-10T05:27:44;11.35;;;5.78;;
57375;SDS011;44805;45.048;5.062;2022-12-10T05:30:22;12.20;;;5.25;;
57375;SDS011;44805;45.048;5.062;2022-12-10T05:33:09;9.55;;;4.85;;
57375;SDS011;44805;45.048;5.062;2022-12-10T05:36:01;11.45;;;4.68;;
57375;SDS011;44805;45.048;5.062;2022-12-10T05:38:39;10.18;;;4.78;;
57375;SDS011;44805;45.048;5.062;2022-12-10T05:41:10;9.35;;;4.70;;
57375;SDS011;44805;45.048;5.062;2022-12-10T05:43:41;10.77;;;5.03;;
57375;SDS011;44805;45.048;5.062;2022-12-10T05:46:09;9.80;;;4.85;;
57375;SDS011;44805;45.048;5.062;2022-12-10T05:48:39;12.60;;;4.68;;
57375;SDS011;44805;45.048;5.062;2022-12-10T05:51:07;9.85;;;4.55;;
57375;SDS011;44805;45.048;5.062;2022-12-10T05:53:35;9.68;;;4.68;;
57375;SDS011;44805;45.048;5.062;2022-12-10T05:56:05;11.75;;;4.97;;
57375;SDS011;44805;45.048;5.062;2022-12-10T05:58:35;10.88;;;4.93;;
57375;SDS011;44805;45.048;5.062;2022-12-10T06:01:11;12.30;;;5.93;;
57375;SDS011;44805;45.048;5.062;2022-12-10T06:06:10;9.95;;;4.50;;
57375;SDS011;44805;45.048;5.062;2022-12-10T06:08:36;9.10;;;4.50;;
57375;SDS011;44805;45.048;5.062;2022-12-10T06:11:04;10.07;;;4.50;;
57375;SDS011;44805;45.048;5.062;2022-12-10T06:13:36;11.65;;;5.32;;
57375;SDS011;44805;45.048;5.062;2022-12-10T06:16:08;13.65;;;6.10;;
57375;SDS011;44805;45.048;5.062;2022-12-10T06:18:37;13.60;;;6.97;;
57375;SDS011;44805;45.048;5.062;2022-12-10T06:21:03;13.60;;;6.32;;
57375;SDS011;44805;45.048;5.062;2022-12-10T06:23:30;14.75;;;5.88;;
57375;SDS011;44805;45.048;5.062;2022-12-10T06:25:58;13.43;;;6.22;;
57375;SDS011;44805;45.048;5.062;2022-12-10T06:28:29;16.67;;;6.63;;
57375;SDS011;44805;45.048;5.062;2022-12-10T06:31:17;11.82;;;5.65;;
57375;SDS011;44805;45.048;5.062;2022-12-10T06:33:45;14.57;;;6.30;;
57375;SDS011;44805;45.048;5.062;2022-12-10T06:36:15;12.82;;;6.93;;
57375;SDS011;44805;45.048;5.062;2022-12-10T06:38:43;11.82;;;6.43;;
57375;SDS011;44805;45.048;5.062;2022-12-10T06:41:11;11.18;;;4.82;;
57375;SDS011;44805;45.048;5.062;2022-12-10T06:44:16;12.63;;;5.88;;
57375;SDS011;44805;45.048;5.062;2022-12-10T08:03:31;21.75;;;10.27;;
57375;SDS011;44805;45.048;5.062;2022-12-10T08:06:56;26.77;;;11.65;;
57375;SDS011;44805;45.048;5.062;2022-12-10T08:09:48;26.65;;;11.68;;
57375;SDS011;44805;45.048;5.062;2022-12-10T08:12:42;22.75;;;11.25;;
57375;SDS011;44805;45.048;5.062;2022-12-10T08:15:34;22.85;;;10.85;;
57375;SDS011;44805;45.048;5.062;2022-12-10T08:32:00;24.58;;;12.20;;
57375;SDS011;44805;45.048;5.062;2022-12-10T08:42:04;20.67;;;10.20;;
57375;SDS011;44805;45.048;5.062;2022-12-10T08:44:34;25.20;;;12.75;;
57375;SDS011;44805;45.048;5.062;2022-12-10T08:47:03;27.05;;;12.07;;
57375;SDS011;44805;45.048;5.062;2022-12-10T08:49:33;24.63;;;11.70;;
57375;SDS011;44805;45.048;5.062;2022-12-10T08:52:20;23.10;;;10.95;;
57375;SDS011;44805;45.048;5.062;2022-12-10T08:54:45;23.17;;;11.35;;
57375;SDS011;44805;45.048;5.062;2022-12-10T08:57:22;25.65;;;11.60;;
57375;SDS011;44805;45.048;5.062;2022-12-10T08:59:51;26.27;;;11.43;;
57375;SDS011;44805;45.048;5.062;2022-12-10T09:02:22;22.90;;;10.60;;
57375;SDS011;44805;45.048;5.062;2022-12-10T09:08:11;19.33;;;10.32;;
57375;SDS011;44805;45.048;5.062;2022-12-10T09:10:42;23.83;;;10.63;;
57375;SDS011;44805;45.048;5.062;2022-12-10T09:13:14;23.52;;;10.38;;
57375;SDS011;44805;45.048;5.062;2022-12-10T09:15:39;22.60;;;10.70;;
57375;SDS011;44805;45.048;5.062;2022-12-10T09:18:05;24.15;;;11.63;;
57375;SDS011;44805;45.048;5.062;2022-12-10T09:23:53;24.02;;;11.23;;
57375;SDS011;44805;45.048;5.062;2022-12-10T09:26:19;22.50;;;10.85;;
57375;SDS011;44805;45.048;5.062;2022-12-10T09:29:13;21.65;;;9.63;;
57375;SDS011;44805;45.048;5.062;2022-12-10T09:32:11;22.40;;;9.73;;
57375;SDS011;44805;45.048;5.062;2022-12-10T09:37:59;20.55;;;9.68;;
57375;SDS011;44805;45.048;5.062;2022-12-10T09:40:55;17.17;;;8.07;;
57375;SDS011;44805;45.048;5.062;2022-12-10T09:52:36;26.10;;;12.13;;
